createdAt,value
2018-03-27T00:00:03.841Z,49.97
2018-03-27T00:02:30.487Z,49.83
2018-03-27T00:04:57.118Z,44.92
2018-03-27T00:07:23.759Z,52.50
2018-03-27T00:09:50.496Z,48.70
2018-03-27T00:12:17.121Z,52.28
2018-03-27T00:14:43.762Z,56.53
2018-03-27T00:17:10.401Z,55.58
2018-03-27T00:19:37.109Z,60.12
2018-03-27T00:22:03.705Z,59.15
2018-03-27T00:24:36.310Z,58.70
2018-03-27T00:27:02.817Z,45.67
2018-03-27T00:29:35.497Z,58.78
2018-03-27T00:32:07.953Z,56.63
2018-03-27T00:34:40.424Z,50.95
2018-03-27T00:37:13.014Z,54.70
2018-03-27T00:39:45.493Z,57.45
2018-03-27T00:42:17.877Z,51.67
2018-03-27T00:44:44.523Z,53.17
2018-03-27T00:47:11.160Z,52.80
2018-03-27T00:49:37.802Z,53.70
2018-03-27T00:52:04.437Z,53.28
2018-03-27T00:54:31.073Z,50.53
2018-03-27T00:56:57.712Z,56.42
2018-03-27T00:59:24.335Z,54.90
2018-03-27T01:01:51.093Z,47.67
2018-03-27T01:04:17.721Z,57.33
2018-03-27T01:06:44.360Z,54.60
2018-03-27T01:09:10.997Z,59.95
2018-03-27T01:11:37.748Z,51.97
2018-03-27T01:14:04.376Z,58.25
2018-03-27T01:16:31.119Z,55.38
2018-03-27T01:18:57.761Z,53.13
2018-03-27T01:21:24.395Z,60.72
2018-03-27T01:23:51.035Z,55.88
2018-03-27T01:26:17.681Z,56.50
2018-03-27T01:28:44.415Z,53.25
2018-03-27T01:31:11.060Z,51.95
2018-03-27T01:33:37.688Z,54.03
2018-03-27T01:36:04.341Z,58.75
2018-03-27T01:38:30.981Z,61.67
2018-03-27T01:40:57.608Z,56.70
2018-03-27T01:43:24.364Z,57.13
2018-03-27T01:45:51.105Z,65.25
2018-03-27T01:48:17.748Z,52.92
2018-03-27T01:50:44.508Z,58.13
2018-03-27T01:53:11.221Z,56.65
2018-03-27T01:55:37.847Z,54.40
2018-03-27T01:58:04.480Z,61.28
2018-03-27T02:00:31.116Z,54.75
2018-03-27T02:02:57.756Z,56.13
2018-03-27T02:05:24.421Z,58.30
2018-03-27T02:07:51.066Z,49.45
2018-03-27T02:10:17.806Z,57.17
2018-03-27T02:12:50.042Z,60.83
2018-03-27T02:15:22.360Z,54.80
2018-03-27T02:17:54.739Z,55.38
2018-03-27T02:20:27.136Z,56.90
2018-03-27T02:23:11.570Z,55.42
2018-03-27T02:25:38.205Z,63.03
2018-03-27T02:28:04.850Z,57.62
2018-03-27T02:30:31.477Z,61.75
2018-03-27T02:32:58.112Z,57.15
2018-03-27T02:35:24.867Z,54.08
2018-03-27T02:37:51.506Z,57.00
2018-03-27T02:40:18.195Z,54.38
2018-03-27T02:42:44.798Z,64.05
2018-03-27T02:45:11.445Z,63.63
2018-03-27T02:47:38.089Z,63.92
2018-03-27T02:50:04.786Z,57.58
2018-03-27T02:52:31.524Z,59.78
2018-03-27T02:54:58.270Z,52.97
2018-03-27T02:57:24.901Z,56.47
2018-03-27T02:59:51.556Z,68.12
2018-03-27T03:02:18.183Z,58.28
2018-03-27T03:04:44.817Z,58.95
2018-03-27T03:07:11.449Z,60.35
2018-03-27T03:09:38.084Z,59.50
2018-03-27T03:12:04.725Z,73.40
2018-03-27T03:14:31.365Z,68.47
2018-03-27T03:16:58.012Z,61.40
2018-03-27T03:19:24.680Z,60.17
2018-03-27T03:21:51.392Z,64.03
2018-03-27T03:24:18.025Z,58.22
2018-03-27T03:26:44.777Z,57.10
2018-03-27T03:29:11.400Z,56.25
2018-03-27T03:31:38.153Z,57.20
2018-03-27T03:34:04.820Z,56.13
2018-03-27T03:36:31.477Z,47.33
2018-03-27T03:38:58.185Z,63.30
2018-03-27T03:41:24.943Z,58.63
2018-03-27T03:43:51.621Z,52.10
2018-03-27T03:46:18.266Z,58.70
2018-03-27T03:48:44.938Z,62.72
2018-03-27T03:51:11.576Z,59.15
2018-03-27T03:53:38.195Z,56.22
2018-03-27T03:56:04.879Z,55.53
2018-03-27T03:58:31.540Z,58.45
2018-03-27T04:00:58.180Z,61.22
2018-03-27T04:03:24.899Z,57.72
2018-03-27T04:05:51.540Z,61.97
2018-03-27T04:08:18.210Z,60.63
2018-03-27T04:10:44.900Z,64.90
2018-03-27T04:13:11.539Z,55.03
2018-03-27T04:15:38.272Z,58.78
2018-03-27T04:18:04.921Z,60.47
2018-03-27T04:20:31.649Z,54.25
2018-03-27T04:22:58.284Z,62.42
2018-03-27T04:25:24.936Z,65.53
2018-03-27T04:27:51.588Z,85.68
2018-03-27T04:30:18.230Z,63.00
2018-03-27T04:32:44.977Z,58.87
2018-03-27T04:35:11.611Z,59.15
2018-03-27T04:37:38.250Z,60.97
2018-03-27T04:40:04.889Z,66.43
2018-03-27T04:42:31.636Z,59.15
2018-03-27T04:44:58.377Z,66.30
2018-03-27T04:47:25.025Z,62.22
2018-03-27T04:49:51.657Z,65.93
2018-03-27T04:52:18.397Z,60.60
2018-03-27T04:54:45.139Z,65.12
2018-03-27T04:57:11.771Z,63.92
2018-03-27T04:59:38.408Z,66.25
2018-03-27T05:02:05.041Z,72.62
2018-03-27T05:04:31.685Z,65.90
2018-03-27T05:06:58.413Z,56.47
2018-03-27T05:09:25.048Z,62.05
2018-03-27T05:11:51.685Z,63.92
2018-03-27T05:14:18.332Z,65.03
2018-03-27T05:16:44.960Z,69.95
2018-03-27T05:19:11.608Z,70.72
2018-03-27T05:21:38.238Z,59.80
2018-03-27T05:24:04.990Z,64.05
2018-03-27T05:26:31.769Z,63.33
2018-03-27T05:28:58.473Z,63.47
2018-03-27T05:31:25.121Z,68.55
2018-03-27T05:33:51.767Z,63.60
2018-03-27T05:36:18.402Z,64.40
2018-03-27T05:38:45.041Z,61.90
2018-03-27T05:41:11.664Z,65.45
2018-03-27T05:43:38.298Z,72.18
2018-03-27T05:46:05.045Z,75.97
2018-03-27T05:48:31.676Z,68.10
2018-03-27T05:50:58.323Z,76.93
2018-03-27T05:53:24.969Z,110.75
2018-03-27T05:55:51.680Z,105.05
2018-03-27T05:58:18.269Z,113.65
2018-03-27T06:00:44.990Z,90.87
2018-03-27T06:03:11.625Z,66.00
2018-03-27T06:05:38.265Z,62.92
2018-03-27T06:08:04.999Z,63.78
2018-03-27T06:10:31.646Z,65.40
2018-03-27T06:12:58.280Z,57.40
2018-03-27T06:15:24.944Z,61.33
2018-03-27T06:17:51.577Z,59.22
2018-03-27T06:20:18.215Z,55.38
2018-03-27T06:22:44.944Z,58.40
2018-03-27T06:25:11.585Z,61.13
2018-03-27T06:27:38.330Z,67.40
2018-03-27T06:30:05.088Z,55.17
2018-03-27T06:32:31.720Z,58.55
2018-03-27T06:34:58.442Z,59.60
2018-03-27T06:37:25.182Z,58.20
2018-03-27T06:39:51.816Z,67.35
2018-03-27T06:42:18.499Z,57.40
2018-03-27T06:44:45.126Z,58.35
2018-03-27T06:47:11.850Z,57.80
2018-03-27T06:49:38.480Z,55.70
2018-03-27T06:52:05.220Z,60.72
2018-03-27T06:54:31.852Z,58.53
2018-03-27T06:56:58.611Z,60.45
2018-03-27T06:59:25.249Z,62.42
2018-03-27T07:01:51.891Z,61.30
2018-03-27T07:04:18.520Z,64.03
2018-03-27T07:06:45.157Z,52.65
2018-03-27T07:09:11.935Z,55.10
2018-03-27T07:11:38.559Z,60.80
2018-03-27T07:14:05.205Z,61.90
2018-03-27T07:16:31.881Z,62.28
2018-03-27T07:18:58.581Z,64.43
2018-03-27T07:21:25.303Z,63.03
2018-03-27T07:23:51.953Z,57.80
2018-03-27T07:26:18.686Z,59.20
2018-03-27T07:28:45.324Z,69.05
2018-03-27T07:31:11.969Z,64.30
2018-03-27T07:33:38.607Z,59.47
2018-03-27T07:36:05.232Z,58.55
2018-03-27T07:38:31.872Z,60.50
2018-03-27T07:40:58.509Z,51.83
2018-03-27T07:43:25.149Z,58.90
2018-03-27T07:45:51.784Z,60.63
2018-03-27T07:48:18.457Z,57.92
2018-03-27T07:50:45.085Z,60.70
2018-03-27T07:53:11.738Z,58.47
2018-03-27T07:55:38.369Z,70.25
2018-03-27T07:58:05.021Z,62.72
2018-03-27T08:00:31.656Z,59.35
2018-03-27T08:02:58.369Z,63.38
2018-03-27T08:05:25.117Z,58.42
2018-03-27T08:07:51.759Z,61.45
2018-03-27T08:10:18.397Z,58.85
2018-03-27T08:12:45.156Z,57.30
2018-03-27T08:15:11.805Z,57.80
2018-03-27T08:17:38.431Z,50.58
2018-03-27T08:20:05.160Z,52.03
2018-03-27T08:22:31.783Z,53.80
2018-03-27T08:24:58.428Z,56.58
2018-03-27T08:27:25.128Z,55.83
2018-03-27T08:29:51.834Z,51.95
2018-03-27T08:32:18.465Z,40.10
2018-03-27T08:34:45.115Z,54.83
2018-03-27T08:37:11.752Z,46.78
2018-03-27T08:39:38.493Z,49.65
2018-03-27T08:42:05.236Z,46.03
2018-03-27T08:44:31.976Z,50.78
2018-03-27T08:46:58.688Z,41.22
2018-03-27T08:49:25.355Z,32.97
2018-03-27T08:51:51.993Z,33.72
2018-03-27T08:54:18.628Z,33.00
2018-03-27T08:56:45.256Z,38.60
2018-03-27T08:59:11.889Z,43.17
2018-03-27T09:01:38.537Z,37.03
2018-03-27T09:04:05.300Z,31.92
2018-03-27T09:06:32.008Z,30.67
2018-03-27T09:08:58.757Z,38.45
2018-03-27T09:11:25.483Z,35.13
2018-03-27T09:13:52.136Z,35.00
2018-03-27T09:16:18.780Z,30.77
2018-03-27T09:18:45.412Z,34.85
2018-03-27T09:21:12.065Z,29.90
2018-03-27T09:23:38.787Z,21.73
2018-03-27T09:26:05.420Z,23.35
2018-03-27T09:28:32.064Z,23.50
2018-03-27T09:30:58.709Z,24.00
2018-03-27T09:33:25.447Z,20.30
2018-03-27T09:35:52.084Z,25.33
2018-03-27T09:38:18.716Z,22.95
2018-03-27T09:40:45.369Z,23.55
2018-03-27T09:43:11.999Z,23.50
2018-03-27T09:45:38.644Z,21.40
2018-03-27T09:48:05.278Z,24.08
2018-03-27T09:50:32.869Z,24.27
2018-03-27T09:52:59.589Z,21.77
2018-03-27T09:55:26.334Z,24.23
2018-03-27T09:57:52.994Z,27.67
2018-03-27T10:00:25.395Z,30.17
2018-03-27T10:02:52.042Z,26.80
2018-03-27T10:05:18.675Z,30.15
2018-03-27T10:07:45.363Z,30.27
2018-03-27T10:10:12.001Z,30.80
2018-03-27T10:12:38.644Z,31.45
2018-03-27T10:15:05.274Z,30.08
2018-03-27T10:17:32.026Z,29.37
2018-03-27T10:19:58.658Z,30.83
2018-03-27T10:22:25.300Z,34.67
2018-03-27T10:24:52.028Z,31.48
2018-03-27T10:27:18.716Z,32.85
2018-03-27T10:29:45.308Z,33.13
2018-03-27T10:32:11.949Z,32.33
2018-03-27T10:34:38.580Z,30.00
2018-03-27T10:37:05.223Z,31.15
2018-03-27T10:39:31.858Z,25.33
2018-03-27T10:41:58.492Z,29.02
2018-03-27T10:44:25.123Z,27.52
2018-03-27T10:46:51.758Z,26.45
2018-03-27T10:49:18.411Z,29.23
2018-03-27T10:51:45.039Z,30.05
2018-03-27T10:54:11.689Z,26.65
2018-03-27T10:56:38.327Z,26.58
2018-03-27T10:59:05.008Z,26.42
2018-03-27T11:01:31.724Z,24.65
2018-03-27T11:03:58.384Z,25.08
2018-03-27T11:06:25.004Z,26.65
2018-03-27T11:08:51.644Z,26.12
2018-03-27T11:11:18.269Z,26.15
2018-03-27T11:13:45.016Z,32.50
2018-03-27T11:16:11.645Z,33.58
2018-03-27T11:18:38.280Z,29.70
2018-03-27T11:21:04.964Z,33.78
2018-03-27T11:23:31.686Z,42.00
2018-03-27T11:25:58.335Z,32.75
2018-03-27T11:28:24.984Z,35.90
2018-03-27T11:30:51.709Z,37.70
2018-03-27T11:33:18.343Z,36.85
2018-03-27T11:35:44.986Z,40.30
2018-03-27T11:38:11.616Z,39.35
2018-03-27T11:40:38.359Z,42.58
2018-03-27T11:43:05.100Z,44.50
2018-03-27T11:45:31.741Z,33.88
2018-03-27T11:47:58.365Z,35.20
2018-03-27T11:50:25.003Z,34.22
2018-03-27T11:52:51.660Z,35.05
2018-03-27T11:55:18.296Z,32.40
2018-03-27T11:57:45.041Z,38.55
2018-03-27T12:00:11.696Z,32.13
2018-03-27T12:02:38.336Z,26.48
2018-03-27T12:05:04.981Z,32.03
2018-03-27T12:07:31.744Z,30.02
2018-03-27T12:09:58.443Z,31.33
2018-03-27T12:12:25.176Z,39.20
2018-03-27T12:14:51.826Z,36.33
2018-03-27T12:17:18.584Z,40.22
2018-03-27T12:19:45.218Z,29.05
2018-03-27T12:22:11.933Z,33.33
2018-03-27T12:24:38.571Z,33.33
2018-03-27T12:27:05.346Z,37.75
2018-03-27T12:29:31.975Z,35.35
2018-03-27T12:31:58.829Z,35.95
2018-03-27T12:34:25.612Z,27.08
2018-03-27T12:36:52.382Z,24.00
2018-03-27T12:39:19.156Z,21.52
2018-03-27T12:41:46.408Z,34.90
2018-03-27T12:44:13.234Z,24.17
2018-03-27T12:46:39.990Z,22.65
2018-03-27T12:49:06.691Z,20.37
2018-03-27T12:51:34.566Z,20.88
2018-03-27T12:54:01.857Z,22.75
2018-03-27T12:56:28.558Z,25.88
2018-03-27T12:58:55.213Z,25.25
2018-03-27T13:01:21.885Z,39.83
2018-03-27T13:03:48.517Z,27.40
2018-03-27T13:06:15.155Z,20.62
2018-03-27T13:08:41.794Z,19.15
2018-03-27T13:11:08.506Z,19.12
2018-03-27T13:13:35.140Z,17.50
2018-03-27T13:16:01.773Z,17.23
2018-03-27T13:18:28.533Z,34.22
2018-03-27T13:20:55.268Z,19.85
2018-03-27T13:23:21.912Z,19.87
2018-03-27T13:25:48.653Z,26.35
2018-03-27T13:28:15.387Z,32.15
2018-03-27T13:30:42.016Z,48.22
2018-03-27T13:33:08.772Z,29.98
2018-03-27T13:35:35.405Z,22.80
2018-03-27T13:38:02.058Z,22.27
2018-03-27T13:40:28.687Z,16.60
2018-03-27T13:42:55.424Z,16.15
2018-03-27T13:45:22.095Z,16.50
2018-03-27T13:47:48.817Z,19.62
2018-03-27T13:50:15.449Z,17.42
2018-03-27T13:52:42.188Z,18.87
2018-03-27T13:55:08.824Z,20.55
2018-03-27T13:57:35.457Z,21.77
2018-03-27T14:00:02.119Z,19.20
2018-03-27T14:02:28.756Z,24.17
2018-03-27T14:04:55.393Z,18.90
2018-03-27T14:07:22.020Z,18.45
2018-03-27T14:09:48.768Z,16.80
2018-03-27T14:12:15.393Z,23.00
2018-03-27T14:14:42.145Z,19.40
2018-03-27T14:17:08.780Z,21.20
2018-03-27T14:19:35.412Z,21.62
2018-03-27T14:22:02.049Z,21.80
2018-03-27T14:24:28.701Z,21.45
2018-03-27T14:26:55.324Z,21.85
2018-03-27T14:29:21.967Z,26.08
2018-03-27T14:31:48.637Z,28.33
2018-03-27T14:34:15.294Z,25.45
2018-03-27T14:36:42.005Z,22.15
2018-03-27T14:39:08.640Z,30.27
2018-03-27T14:41:35.276Z,18.42
2018-03-27T14:44:02.021Z,19.77
2018-03-27T14:46:28.685Z,27.90
2018-03-27T14:48:55.405Z,24.23
2018-03-27T14:51:22.058Z,20.83
2018-03-27T14:53:48.699Z,18.77
2018-03-27T14:56:15.342Z,18.23
2018-03-27T14:58:41.977Z,21.15
2018-03-27T15:01:08.619Z,20.80
2018-03-27T15:03:35.337Z,20.30
2018-03-27T15:06:01.985Z,22.35
2018-03-27T15:08:28.617Z,22.20
2018-03-27T15:10:55.352Z,21.12
2018-03-27T15:13:21.996Z,25.45
2018-03-27T15:15:48.740Z,20.90
2018-03-27T15:18:15.480Z,21.27
2018-03-27T15:20:42.129Z,24.25
2018-03-27T15:23:08.760Z,23.60
2018-03-27T15:25:35.512Z,21.55
2018-03-27T15:28:02.245Z,22.77
2018-03-27T15:30:28.895Z,27.90
2018-03-27T15:32:55.622Z,26.45
2018-03-27T15:35:22.251Z,21.55
2018-03-27T15:37:48.910Z,21.48
2018-03-27T15:40:15.877Z,24.45
2018-03-27T15:42:42.576Z,19.33
2018-03-27T15:45:09.208Z,22.52
2018-03-27T15:47:35.839Z,19.58
2018-03-27T15:50:02.496Z,19.45
2018-03-27T15:52:29.245Z,18.23
2018-03-27T15:54:55.877Z,17.70
2018-03-27T15:57:22.629Z,27.87
2018-03-27T15:59:49.360Z,16.42
2018-03-27T16:02:16.003Z,19.20
2018-03-27T16:04:42.637Z,25.25
2018-03-27T16:07:09.285Z,15.82
2018-03-27T16:09:35.912Z,19.40
2018-03-27T16:12:02.668Z,18.67
2018-03-27T16:14:29.413Z,19.67
2018-03-27T16:16:56.149Z,18.33
2018-03-27T16:19:22.789Z,21.87
2018-03-27T16:21:49.441Z,26.15
2018-03-27T16:24:16.169Z,23.65
2018-03-27T16:26:42.805Z,29.73
2018-03-27T16:29:09.477Z,24.80
2018-03-27T16:31:36.109Z,23.12
2018-03-27T16:34:02.745Z,24.40
2018-03-27T16:36:29.382Z,23.15
2018-03-27T16:38:56.105Z,23.60
2018-03-27T16:41:22.738Z,20.42
2018-03-27T16:43:49.394Z,22.08
2018-03-27T16:46:16.021Z,21.42
2018-03-27T16:48:42.767Z,23.58
2018-03-27T16:51:09.392Z,27.85
2018-03-27T16:53:36.033Z,22.08
2018-03-27T16:56:02.676Z,26.08
2018-03-27T16:58:29.425Z,21.67
2018-03-27T17:00:56.226Z,22.17
2018-03-27T17:03:22.865Z,22.42
2018-03-27T17:05:49.501Z,23.48
2018-03-27T17:08:16.141Z,22.48
2018-03-27T17:10:42.820Z,25.55
2018-03-27T17:13:09.470Z,20.12
2018-03-27T17:15:36.104Z,22.42
2018-03-27T17:18:02.732Z,23.08
2018-03-27T17:20:29.368Z,20.90
2018-03-27T17:22:56.103Z,20.80
2018-03-27T17:25:22.745Z,23.83
2018-03-27T17:27:49.382Z,26.50
2018-03-27T17:30:16.024Z,24.35
2018-03-27T17:32:42.661Z,20.50
2018-03-27T17:35:09.300Z,22.55
2018-03-27T17:37:35.938Z,25.12
2018-03-27T17:40:02.580Z,21.87
2018-03-27T17:42:29.208Z,26.50
2018-03-27T17:44:55.843Z,21.50
2018-03-27T17:47:22.480Z,25.65
2018-03-27T17:49:49.116Z,31.52
2018-03-27T17:52:15.784Z,29.70
2018-03-27T17:54:42.419Z,25.30
2018-03-27T17:57:09.049Z,24.40
2018-03-27T17:59:35.699Z,24.67
2018-03-27T18:02:02.337Z,25.58
2018-03-27T18:04:28.964Z,28.90
2018-03-27T18:06:55.605Z,24.87
2018-03-27T18:09:22.260Z,26.67
2018-03-27T18:11:48.902Z,29.55
2018-03-27T18:14:15.534Z,26.12
2018-03-27T18:16:42.182Z,25.67
2018-03-27T18:19:08.812Z,21.50
2018-03-27T18:21:35.475Z,22.00
2018-03-27T18:24:02.103Z,27.70
2018-03-27T18:26:28.750Z,28.45
2018-03-27T18:28:55.476Z,33.30
2018-03-27T18:31:22.108Z,29.20
2018-03-27T18:33:48.738Z,28.55
2018-03-27T18:36:15.380Z,28.23
2018-03-27T18:38:42.024Z,32.67
2018-03-27T18:41:08.673Z,26.98
2018-03-27T18:43:35.404Z,21.42
2018-03-27T18:46:02.049Z,25.45
2018-03-27T18:48:28.683Z,23.38
2018-03-27T18:50:55.472Z,24.70
2018-03-27T18:53:22.085Z,26.33
2018-03-27T18:55:48.708Z,24.67
2018-03-27T18:58:15.480Z,28.15
2018-03-27T19:00:42.115Z,25.65
2018-03-27T19:03:08.759Z,26.70
2018-03-27T19:05:35.500Z,25.02
2018-03-27T19:08:02.134Z,26.77
2018-03-27T19:10:28.791Z,23.60
2018-03-27T19:12:55.517Z,24.65
2018-03-27T19:15:22.154Z,24.70
2018-03-27T19:17:48.798Z,21.25
2018-03-27T19:20:15.524Z,23.35
2018-03-27T19:22:42.160Z,24.63
2018-03-27T19:25:08.788Z,22.00
2018-03-27T19:27:35.428Z,25.42
2018-03-27T19:30:02.063Z,29.40
2018-03-27T19:32:28.697Z,22.25
2018-03-27T19:34:55.339Z,22.62
2018-03-27T19:37:22.093Z,21.10
2018-03-27T19:39:48.729Z,24.70
2018-03-27T19:42:15.351Z,28.17
2018-03-27T19:44:41.992Z,22.70
2018-03-27T19:47:08.629Z,26.95
2018-03-27T19:49:35.388Z,29.58
2018-03-27T19:52:02.022Z,23.45
2018-03-27T19:54:28.687Z,23.02
2018-03-27T19:56:55.400Z,33.13
2018-03-27T19:59:22.148Z,45.97
2018-03-27T20:01:48.775Z,25.92
2018-03-27T20:04:15.412Z,23.52
2018-03-27T20:06:42.045Z,30.58
2018-03-27T20:09:08.687Z,23.20
2018-03-27T20:11:35.343Z,26.75
2018-03-27T20:14:01.989Z,31.65
2018-03-27T20:16:28.614Z,32.38
2018-03-27T20:18:55.262Z,30.65
2018-03-27T20:21:21.998Z,29.55
2018-03-27T20:23:48.742Z,29.35
2018-03-27T20:26:15.480Z,29.60
2018-03-27T20:28:42.136Z,28.92
2018-03-27T20:31:08.763Z,27.70
2018-03-27T20:33:35.503Z,35.97
2018-03-27T20:36:02.141Z,39.72
2018-03-27T20:38:28.891Z,31.80
2018-03-27T20:40:55.527Z,35.63
2018-03-27T20:43:22.153Z,29.80
2018-03-27T20:45:48.792Z,24.58
2018-03-27T20:48:15.425Z,30.62
2018-03-27T20:50:42.068Z,31.58
2018-03-27T20:53:08.696Z,26.52
2018-03-27T20:55:35.358Z,26.67
2018-03-27T20:58:01.983Z,28.52
2018-03-27T21:00:28.624Z,27.85
2018-03-27T21:02:55.268Z,31.33
2018-03-27T21:05:21.904Z,31.35
2018-03-27T21:07:48.562Z,28.30
2018-03-27T21:10:15.329Z,32.20
2018-03-27T21:12:41.972Z,28.58
2018-03-27T21:15:08.680Z,29.23
2018-03-27T21:17:35.417Z,38.63
2018-03-27T21:20:02.153Z,31.52
2018-03-27T21:22:28.794Z,31.35
2018-03-27T21:24:55.441Z,32.05
2018-03-27T21:27:22.077Z,32.78
2018-03-27T21:29:48.704Z,27.55
2018-03-27T21:32:15.339Z,30.60
2018-03-27T21:34:41.974Z,33.10
2018-03-27T21:37:08.614Z,33.53
2018-03-27T21:39:35.294Z,28.38
2018-03-27T21:42:01.936Z,32.53
2018-03-27T21:44:28.643Z,30.90
2018-03-27T21:46:55.387Z,35.20
2018-03-27T21:49:22.015Z,28.70
2018-03-27T21:51:48.771Z,31.40
2018-03-27T21:54:15.507Z,35.40
2018-03-27T21:56:42.150Z,31.85
2018-03-27T21:59:08.781Z,32.00
2018-03-27T22:01:35.420Z,26.65
2018-03-27T22:04:02.052Z,35.70
2018-03-27T22:06:28.808Z,36.83
2018-03-27T22:08:55.562Z,29.90
2018-03-27T22:11:22.291Z,33.08
2018-03-27T22:13:49.037Z,30.15
2018-03-27T22:16:15.665Z,32.75
2018-03-27T22:18:42.424Z,31.23
2018-03-27T22:21:09.060Z,33.80
2018-03-27T22:23:35.769Z,36.28
2018-03-27T22:26:02.352Z,38.67
2018-03-27T22:28:29.007Z,33.85
2018-03-27T22:30:55.713Z,32.38
2018-03-27T22:33:22.361Z,26.10
2018-03-27T22:35:49.091Z,32.33
2018-03-27T22:38:15.759Z,29.45
2018-03-27T22:40:42.468Z,34.25
2018-03-27T22:43:09.110Z,30.60
2018-03-27T22:45:35.744Z,32.47
2018-03-27T22:48:02.385Z,32.15
2018-03-27T22:50:29.017Z,37.70
2018-03-27T22:52:55.655Z,30.33
2018-03-27T22:55:22.303Z,37.97
2018-03-27T22:57:48.952Z,31.35
2018-03-27T23:00:18.664Z,30.92
2018-03-27T23:02:45.298Z,34.00
2018-03-27T23:05:11.941Z,36.92
2018-03-27T23:07:38.577Z,32.78
2018-03-27T23:10:05.346Z,39.35
2018-03-27T23:12:31.972Z,36.53
2018-03-27T23:14:58.615Z,34.90
2018-03-27T23:17:25.331Z,40.25
2018-03-27T23:19:51.972Z,40.35
2018-03-27T23:22:24.351Z,33.33
2018-03-27T23:24:50.989Z,33.80
2018-03-27T23:27:17.738Z,39.13
2018-03-27T23:29:44.385Z,35.13
2018-03-27T23:32:11.103Z,39.97
2018-03-27T23:34:37.736Z,33.90
2018-03-27T23:37:04.372Z,38.38
2018-03-27T23:39:31.017Z,43.72
2018-03-27T23:41:57.643Z,39.00
2018-03-27T23:44:24.296Z,36.03
2018-03-27T23:46:50.925Z,31.58
2018-03-27T23:49:17.579Z,36.92
2018-03-27T23:51:44.272Z,41.67
2018-03-27T23:54:10.921Z,30.83
2018-03-27T23:56:37.565Z,36.13
2018-03-27T23:59:04.193Z,38.65
